Aviation Digital Data Service (ADDS)

Output produced by TAFs form (1213 UTC 24 February 2018)
found at http://aviationweather.gov/adds/tafs/
 
METAR text: LYBE 241200Z 33010KT 9999 BKN040 M01/M05 Q1017 NOSIG
Conditions at: LYBE (BELGRADE/SURCIN , CS) observed 1200 UTC 24 February 2018
Temperature: -1.0°C (30°F)
Dewpoint: -5.0°C (23°F) [RH = 74%]
Pressure (altimeter): 30.03 inches Hg (1017.0 mb)
Winds: from the NNW (330 degrees) at 12 MPH (10 knots; 5.2 m/s)
Visibility: 6 or more miles (10+ km)
Ceiling: 4000 feet AGL
Clouds: broken clouds at 4000 feet AGL
Weather: no significant weather observed at this time

Forecast for: LYBE (BELGRADE/SURCIN , CS)
Text: TAF LYBE 241100Z 2412/2512 34012KT 9999 BKN040 TX00/2413Z TNM07/2506Z
Forecast period: 1200 UTC 24 February 2018 to 1200 UTC 25 February 2018
Forecast type: FROM: standard forecast or significant change
Winds: from the NNW (340 degrees) at 14 MPH (12 knots; 6.2 m/s)
Visibility: 6 or more miles (10+ km)
Ceiling: 4000 feet AGL
Clouds: broken clouds at 4000 feet AGL
Weather: no significant weather forecast for this period